Time;durP1;ratioP1;P1;durP2;ratioP2;P2;SDS_P1;SDS_P2;PMS_P1;PMS_P2;Temp;Humidity;BMP_temperature;BMP_pressure;BME280_temperature;BME280_humidity;BME280_pressure;Samples;Min_cycle;Max_cycle;Signal;HPM_P1;HPM_P2
2022/07/12 00:01:04;;;;;;;1999.90;999.90;;;;;;;18.82;100.00;95802.47;5074052;28;20189;-69
2022/07/12 00:03:30;;;;;;;1999.90;999.90;;;;;;;18.82;100.00;95793.38;5073864;28;20603;-53
2022/07/12 00:05:56;;;;;;;1999.90;999.90;;;;;;;18.78;100.00;95790.75;5057247;28;20185;-52
2022/07/12 00:08:22;;;;;;;1999.90;999.90;;;;;;;18.75;100.00;95790.84;5057220;28;20184;-54
2022/07/12 00:10:47;;;;;;;1999.90;999.90;;;;;;;18.72;100.00;95789.00;5073859;28;20185;-53
2022/07/12 00:13:13;;;;;;;1999.90;999.90;;;;;;;18.67;100.00;95784.00;5057752;28;20188;-53
2022/07/12 00:15:38;;;;;;;1999.90;999.90;;;;;;;18.66;100.00;95782.47;5074273;28;20212;-52
2022/07/12 00:18:04;;;;;;;1999.90;999.90;;;;;;;18.63;100.00;95775.06;5073574;28;20648;-54
2022/07/12 00:20:29;;;;;;;1999.90;999.90;;;;;;;18.55;100.00;95771.78;5057304;28;20294;-60
2022/07/12 00:22:55;;;;;;;1999.90;999.90;;;;;;;18.49;100.00;95772.75;5056978;28;20189;-58
2022/07/12 00:25:21;;;;;;;1999.90;999.90;;;;;;;18.47;100.00;95762.13;5056998;28;20738;-58
2022/07/12 00:27:46;;;;;;;1999.90;999.90;;;;;;;18.44;100.00;95759.50;5057203;28;20196;-58
2022/07/12 00:30:12;;;;;;;1999.90;999.90;;;;;;;18.44;100.00;95748.44;5057185;28;20224;-58
2022/07/12 00:32:37;;;;;;;1999.90;999.90;;;;;;;18.40;100.00;95740.22;5056690;28;20209;-58
2022/07/12 00:35:05;;;;;;;1999.90;999.90;;;;;;;18.38;100.00;95741.91;5056770;28;20633;-58
2022/07/12 00:37:31;;;;;;;1999.90;999.90;;;;;;;18.38;100.00;95733.59;5056691;28;20646;-71
2022/07/12 00:39:57;;;;;;;1999.90;999.90;;;;;;;18.30;100.00;95737.78;5074527;28;20193;-70
2022/07/12 00:42:23;;;;;;;1999.90;999.90;;;;;;;18.29;100.00;95737.00;5057247;28;20188;-60
2022/07/12 00:44:48;;;;;;;1999.90;999.90;;;;;;;18.29;100.00;95730.72;5056871;28;20204;-60
2022/07/12 00:47:40;;;;;;;1999.90;999.90;;;;;;;18.24;100.00;95712.69;5056385;28;20185;-60
2022/07/12 00:50:07;;;;;;;1999.90;999.90;;;;;;;18.23;100.00;95713.13;5073212;28;20193;-64
2022/07/12 00:52:33;;;;;;;1999.90;999.90;;;;;;;18.18;100.00;95708.19;5073130;28;20326;-62
2022/07/12 00:54:58;;;;;;;1999.90;999.90;;;;;;;18.19;100.00;95704.19;5056447;28;20224;-62
2022/07/12 00:57:24;;;;;;;1999.90;999.90;;;;;;;18.15;100.00;95707.09;5056661;28;20177;-55
2022/07/12 00:59:49;;;;;;;1999.90;999.90;;;;;;;18.05;100.00;95694.38;5056295;28;20280;-62
2022/07/12 01:02:15;;;;;;;1999.90;999.90;;;;;;;18.01;100.00;95692.94;5072716;28;20185;-63
2022/07/12 01:04:43;;;;;;;1999.90;999.90;;;;;;;18.00;100.00;95685.84;5073558;28;20200;-62
2022/07/12 01:07:08;;;;;;;1999.90;999.90;;;;;;;17.93;100.00;95680.56;5056317;28;20185;-63
2022/07/12 01:09:34;;;;;;;1999.90;999.90;;;;;;;17.86;100.00;95661.44;5056210;28;20189;-62
2022/07/12 01:11:59;;;;;;;1999.90;999.90;;;;;;;17.83;100.00;95659.56;5056661;28;20193;-63
2022/07/12 01:14:25;;;;;;;1999.90;999.90;;;;;;;17.83;100.00;95665.06;5056449;28;20205;-57
2022/07/12 01:16:51;;;;;;;1999.90;999.90;;;;;;;17.85;100.00;95665.44;5056626;28;20185;-63
2022/07/12 01:19:20;;;;;;;1999.90;999.90;;;;;;;17.83;100.00;95663.09;5055981;28;20211;-62
2022/07/12 01:21:48;;;;;;;1999.90;999.90;;;;;;;17.84;100.00;95661.09;5073844;28;20177;-62
2022/07/12 01:24:14;;;;;;;1999.90;999.90;;;;;;;17.84;100.00;95669.38;5056024;28;20237;-61
2022/07/12 01:26:40;;;;;;;1999.90;999.90;;;;;;;17.82;100.00;95666.31;5055876;28;20189;-62
2022/07/12 01:29:07;;;;;;;1999.90;999.90;;;;;;;17.79;100.00;95656.13;5054713;28;20181;-64
2022/07/12 01:31:35;;;;;;;1999.90;999.90;;;;;;;17.75;100.00;95666.53;5073259;28;20230;-63
2022/07/12 01:34:02;;;;;;;1999.90;999.90;;;;;;;17.72;100.00;95661.88;5055746;28;20192;-57
2022/07/12 01:36:28;;;;;;;1999.90;999.90;;;;;;;17.68;100.00;95658.47;5055564;28;20181;-58
2022/07/12 01:38:53;;;;;;;1999.90;999.90;;;;;;;17.67;100.00;95652.16;5056268;28;20228;-58
2022/07/12 01:41:19;;;;;;;1999.90;999.90;;;;;;;17.67;100.00;95643.09;5056000;28;20236;-56
2022/07/12 01:43:44;;;;;;;1999.90;999.90;;;;;;;17.62;100.00;95633.38;5073342;28;20181;-55
2022/07/12 01:46:09;;;;;;;1999.90;999.90;;;;;;;17.60;100.00;95629.50;5055879;28;20207;-57
2022/07/12 01:48:35;;;;;;;1999.90;999.90;;;;;;;17.54;100.00;95636.78;5055390;28;20181;-57
2022/07/12 01:51:00;;;;;;;1999.90;999.90;;;;;;;17.47;100.00;95620.44;5055671;28;20177;-56
2022/07/12 01:53:26;;;;;;;1999.90;999.90;;;;;;;17.42;100.00;95629.28;5055995;28;20177;-54
2022/07/12 01:55:52;;;;;;;1999.90;999.90;;;;;;;17.37;100.00;95618.78;5055504;28;20205;-56
2022/07/12 01:58:17;;;;;;;1999.90;999.90;;;;;;;17.30;100.00;95616.22;5055556;28;20185;-57
2022/07/12 02:00:50;;;;;;;1999.90;999.90;;;;;;;17.21;100.00;95600.31;5055307;28;20201;-55
2022/07/12 02:03:17;;;;;;;1999.90;999.90;;;;;;;17.14;100.00;95585.94;5055262;28;20278;-55
2022/07/12 02:05:42;;;;;;;1999.90;999.90;;;;;;;17.12;100.00;95578.09;5055705;28;20642;-51
2022/07/12 02:08:07;;;;;;;1999.90;999.90;;;;;;;17.11;100.00;95578.56;5055217;28;20200;-52
2022/07/12 02:10:32;;;;;;;1999.90;999.90;;;;;;;17.07;100.00;95564.88;5055610;28;20189;-55
2022/07/12 02:12:59;;;;;;;1999.90;999.90;;;;;;;17.06;100.00;95557.03;5055034;28;20646;-65
2022/07/12 02:15:24;;;;;;;1999.90;999.90;;;;;;;17.06;100.00;95540.47;5055383;28;20209;-66
2022/07/12 02:17:49;;;;;;;1999.90;999.90;;;;;;;17.05;100.00;95534.19;5055938;28;20184;-65
2022/07/12 02:20:15;;;;;;;1999.90;999.90;;;;;;;17.03;100.00;95530.31;5055384;28;20205;-65
2022/07/12 02:22:40;;;;;;;1999.90;999.90;;;;;;;17.01;100.00;95532.75;5055617;28;20196;-65
2022/07/12 02:25:06;;;;;;;1999.90;999.90;;;;;;;16.99;100.00;95526.88;5055248;28;20185;-66
2022/07/12 02:27:31;;;;;;;1999.90;999.90;;;;;;;16.97;100.00;95521.03;5055116;28;20185;-68
2022/07/12 02:29:57;;;;;;;1999.90;999.90;;;;;;;16.96;100.00;95508.44;5055401;28;20250;-60
2022/07/12 02:32:22;;;;;;;1999.90;999.90;;;;;;;16.90;100.00;95499.19;5055436;28;20264;-61
2022/07/12 02:34:47;;;;;;;1999.90;999.90;;;;;;;16.85;100.00;95491.44;5055560;28;20370;-61
2022/07/12 02:37:14;;;;;;;1999.90;999.90;;;;;;;16.78;100.00;95481.41;5071875;28;20200;-60
2022/07/12 02:39:39;;;;;;;1999.90;999.90;;;;;;;16.74;100.00;95474.44;5055539;28;20224;-60
2022/07/12 02:42:05;;;;;;;1999.90;999.90;;;;;;;16.69;100.00;95472.25;5058108;28;20197;-60
2022/07/12 02:44:30;;;;;;;1999.90;999.90;;;;;;;16.62;100.00;95467.72;5058342;28;20270;-59
2022/07/12 02:46:55;;;;;;;1999.90;999.90;;;;;;;16.55;100.00;95439.59;5058374;28;20189;-70
2022/07/12 02:49:21;;;;;;;1999.90;999.90;;;;;;;16.49;100.00;95444.13;5058438;28;20291;-58
2022/07/12 02:51:46;;;;;;;1999.90;999.90;;;;;;;16.42;100.00;95425.03;5058517;28;20185;-58
2022/07/12 02:54:11;;;;;;;1999.90;999.90;;;;;;;16.38;100.00;95414.06;5058540;28;20251;-58
2022/07/12 02:56:37;;;;;;;1999.90;999.90;;;;;;;16.30;100.00;95391.47;5074966;28;20185;-58
2022/07/12 02:59:02;;;;;;;1999.90;999.90;;;;;;;16.30;100.00;95396.19;5058053;28;20189;-58
2022/07/12 03:01:27;;;;;;;1999.90;999.90;;;;;;;16.24;100.00;95387.72;5058374;28;20191;-58
2022/07/12 03:03:53;;;;;;;1999.90;999.90;;;;;;;16.22;100.00;95359.81;5058444;28;20185;-55
2022/07/12 03:06:18;;;;;;;1999.90;999.90;;;;;;;16.18;100.00;95342.59;5057838;28;20185;-60
2022/07/12 03:08:43;;;;;;;1999.90;999.90;;;;;;;16.15;100.00;95331.72;5058898;28;20181;-60
2022/07/12 03:11:09;;;;;;;1999.90;999.90;;;;;;;16.17;100.00;95329.28;5074694;28;20186;-60
2022/07/12 03:13:34;;;;;;;1999.90;999.90;;;;;;;16.16;100.00;95331.28;5074743;28;20178;-60
2022/07/12 03:15:59;;;;;;;1999.90;999.90;;;;;;;16.13;100.00;95332.16;5057993;28;20303;-61
2022/07/12 03:18:25;;;;;;;1999.90;999.90;;;;;;;16.11;100.00;95326.28;5057980;28;20239;-60
2022/07/12 03:20:50;;;;;;;1999.90;999.90;;;;;;;16.12;100.00;95322.34;5057588;28;20212;-60
2022/07/12 03:23:16;;;;;;;1999.90;999.90;;;;;;;16.13;100.00;95326.63;5057986;28;20246;-55
2022/07/12 03:25:41;;;;;;;1999.90;999.90;;;;;;;16.11;100.00;95326.28;5057734;28;20550;-64
2022/07/12 03:28:06;;;;;;;1999.90;999.90;;;;;;;16.09;100.00;95309.44;5074497;28;20188;-65
2022/07/12 03:30:32;;;;;;;1999.90;999.90;;;;;;;16.10;100.00;95305.47;5058072;28;20189;-67
2022/07/12 03:32:57;;;;;;;1999.90;999.90;;;;;;;16.09;100.00;95311.41;5057964;28;20216;-65
2022/07/12 03:35:23;;;;;;;1999.90;999.90;;;;;;;16.08;100.00;95313.41;5057507;28;20209;-65
2022/07/12 03:37:50;;;;;;;1999.90;999.90;;;;;;;16.07;100.00;95311.84;5058130;28;20193;-64
2022/07/12 03:40:18;;;;;;;1999.90;999.90;;;;;;;16.08;100.00;95296.88;5057493;28;20185;-64
2022/07/12 03:42:45;;;;;;;1999.90;999.90;;;;;;;16.11;100.00;95295.97;5074175;28;20193;-60
2022/07/12 03:45:11;;;;;;;1999.90;999.90;;;;;;;16.17;100.00;95296.97;5057334;28;20558;-58
2022/07/12 03:47:39;;;;;;;1999.90;999.90;;;;;;;16.26;100.00;95302.63;5074582;28;20221;-59
2022/07/12 03:50:07;;;;;;;1999.90;999.90;;;;;;;16.44;100.00;95308.34;5057958;28;20181;-60
2022/07/12 03:52:33;;;;;;;1999.90;999.90;;;;;;;16.63;100.00;95314.06;5073267;28;20189;-60
2022/07/12 03:55:01;;;;;;;1999.90;999.90;;;;;;;16.79;100.00;95344.28;5057120;28;20262;-60
2022/07/12 03:57:27;;;;;;;1999.90;999.90;;;;;;;17.02;100.00;95361.22;5074240;28;20189;-60
2022/07/12 03:59:52;;;;;;;1999.90;999.90;;;;;;;17.23;100.00;95385.31;5057428;28;20185;-68
2022/07/12 04:02:18;;;;;;;1999.90;999.90;;;;;;;17.39;100.00;95426.59;5056971;28;20187;-60
2022/07/12 04:04:44;;;;;;;1999.90;999.90;;;;;;;17.60;100.00;95458.25;5057146;28;20193;-67
2022/07/12 04:07:09;;;;;;;1999.90;999.90;;;;;;;17.88;100.00;95473.88;5057113;28;20194;-66
2022/07/12 04:09:35;;;;;;;1999.90;999.90;;;;;;;18.22;100.00;95509.75;5074938;28;20276;-69
2022/07/12 04:12:01;;;;;;;1999.90;999.90;;;;;;;18.66;100.00;95552.81;5057189;28;20196;-66
2022/07/12 04:14:28;;;;;;;1999.90;999.90;;;;;;;19.11;100.00;95597.38;5056731;28;20205;-67
2022/07/12 04:16:53;;;;;;;1999.90;999.90;;;;;;;19.42;100.00;95639.75;5057423;28;20193;-66
2022/07/12 04:19:19;;;;;;;1999.90;999.90;;;;;;;19.69;100.00;95670.34;5056884;28;20216;-60
2022/07/12 04:21:44;;;;;;;1999.90;999.90;;;;;;;19.97;100.00;95696.97;5057328;28;20189;-58
2022/07/12 04:24:09;;;;;;;1999.90;999.90;;;;;;;20.09;100.00;95715.47;5056838;28;20592;-59
2022/07/12 04:26:35;;;;;;;1999.90;999.90;;;;;;;20.24;100.00;95724.03;5073517;28;20216;-58
2022/07/12 04:29:00;;;;;;;1999.90;999.90;;;;;;;20.30;100.00;95742.41;5056624;28;20177;-58
2022/07/12 04:31:26;;;;;;;1999.90;999.90;;;;;;;20.66;100.00;95748.06;5057047;28;20216;-59
2022/07/12 04:33:51;;;;;;;1999.90;999.90;;;;;;;20.96;100.00;95761.09;5056567;28;20185;-59
2022/07/12 04:36:17;;;;;;;1999.90;999.90;;;;;;;21.06;100.00;95784.88;5056370;28;20209;-61
2022/07/12 04:38:42;;;;;;;1999.90;999.90;;;;;;;20.95;100.00;95783.75;5056812;28;20525;-68
2022/07/12 04:41:07;;;;;;;1999.90;999.90;;;;;;;20.70;100.00;95782.00;5056488;28;20232;-58
2022/07/12 04:43:33;;;;;;;1999.90;999.90;;;;;;;20.47;100.00;95776.97;5056470;28;20197;-59
2022/07/12 04:46:08;;;;;;;1999.90;999.90;;;;;;;20.35;100.00;95763.22;5056671;28;20185;-59
2022/07/12 04:48:34;;;;;;;1999.90;999.90;;;;;;;20.60;100.00;95774.88;5056527;28;20206;-59
2022/07/12 04:50:59;;;;;;;1999.90;999.90;;;;;;;20.91;100.00;95785.88;5056197;28;20200;-59
2022/07/12 04:53:25;;;;;;;1999.90;999.90;;;;;;;21.23;100.00;95802.75;5056893;28;20185;-58
2022/07/12 04:55:50;;;;;;;1999.90;999.90;;;;;;;21.30;100.00;95816.34;5056394;28;20212;-65
2022/07/12 04:58:15;;;;;;;1999.90;999.90;;;;;;;21.24;100.00;95811.88;5056230;28;20189;-61
2022/07/12 05:00:41;;;;;;;1999.90;999.90;;;;;;;21.68;100.00;95827.78;5056319;28;20208;-60
2022/07/12 05:03:06;;;;;;;1999.90;999.90;;;;;;;22.04;100.00;95844.44;5056299;28;20188;-60
2022/07/12 05:05:31;;;;;;;1999.90;999.90;;;;;;;22.20;100.00;95862.81;5056412;28;20195;-60
2022/07/12 05:07:57;;;;;;;1999.90;999.90;;;;;;;22.66;100.00;95867.06;5056723;28;20293;-61
2022/07/12 05:10:23;;;;;;;1999.90;999.90;;;;;;;23.38;100.00;95882.66;5056008;28;20193;-61
2022/07/12 05:12:48;;;;;;;1999.90;999.90;;;;;;;24.06;100.00;95909.44;5056339;28;20193;-60
2022/07/12 05:15:13;;;;;;;1999.90;999.90;;;;;;;24.40;100.00;95920.00;5056197;28;20208;-66
2022/07/12 05:17:39;;;;;;;1999.90;999.90;;;;;;;24.11;100.00;95919.94;5055986;28;20181;-60
2022/07/12 05:20:05;;;;;;;1999.90;999.90;;;;;;;24.29;100.00;95928.16;5056146;28;20209;-61
2022/07/12 05:22:30;;;;;;;1999.90;999.90;;;;;;;24.42;100.00;95926.63;5055593;28;20189;-60
2022/07/12 05:24:56;;;;;;;1999.90;999.90;;;;;;;24.65;100.00;95936.19;5056282;28;20188;-61
2022/07/12 05:27:21;;;;;;;1999.90;999.90;;;;;;;24.88;100.00;95941.66;5055996;28;20192;-59
2022/07/12 05:29:46;;;;;;;1999.90;999.90;;;;;;;25.15;100.00;95943.38;5056146;28;20193;-60
2022/07/12 05:32:12;;;;;;;1999.90;999.90;;;;;;;25.06;100.00;95938.66;5055717;28;20226;-56
2022/07/12 05:34:38;;;;;;;1999.90;999.90;;;;;;;25.32;96.82;95941.66;5055831;28;20205;-67
2022/07/12 05:37:04;;;;;;;1999.90;999.90;;;;;;;25.49;96.09;95953.09;5072346;28;20283;-70
2022/07/12 05:39:29;;;;;;;1999.90;999.90;;;;;;;25.94;91.72;95952.41;5055396;28;20217;-69
2022/07/12 05:41:55;;;;;;;1999.90;999.90;;;;;;;25.99;89.85;95955.31;5055946;28;20192;-66
2022/07/12 05:44:20;;;;;;;1999.90;999.90;;;;;;;26.13;90.09;95960.06;5055297;28;20220;-66
2022/07/12 05:46:46;;;;;;;1999.90;999.90;;;;;;;26.85;84.70;95964.44;5072430;28;20188;-66
2022/07/12 05:49:11;;;;;;;1999.90;999.90;;;;;;;26.96;82.64;95970.16;5055913;28;20204;-66
2022/07/12 05:54:21;;;;;;;1999.90;999.90;;;;;;;26.05;86.99;95977.78;5073650;28;20747;-66
2022/07/12 05:56:46;;;;;;;1999.90;999.90;;;;;;;25.57;89.54;95966.19;5055935;28;20181;-66
2022/07/12 05:59:11;;;;;;;1999.90;999.90;;;;;;;25.41;90.69;95977.13;5055323;28;20181;-67
2022/07/12 06:01:37;;;;;;;1999.90;999.90;;;;;;;25.91;88.43;95982.16;5055229;28;20203;-67
2022/07/12 06:04:02;;;;;;;1999.90;999.90;;;;;;;26.60;85.08;95986.88;5055274;28;20217;-67
2022/07/12 06:06:27;;;;;;;1999.90;999.90;;;;;;;26.89;81.00;95986.66;5054913;28;20219;-65
2022/07/12 06:08:53;;;;;;;1999.90;999.90;;;;;;;27.66;76.15;95999.31;5055116;28;20192;-59
2022/07/12 06:11:18;;;;;;;1999.90;999.90;;;;;;;28.07;74.44;96002.63;5055467;28;20182;-65
2022/07/12 06:13:44;;;;;;;1999.90;999.90;;;;;;;28.45;71.98;96002.06;5055034;28;20219;-68
2022/07/12 06:16:10;;;;;;;1999.90;999.90;;;;;;;28.78;68.88;96001.38;5057281;28;20200;-66
2022/07/12 06:18:36;;;;;;;1999.90;999.90;;;;;;;28.89;67.31;95995.78;5059458;28;20275;-64
2022/07/12 06:21:01;;;;;;;1999.90;999.90;;;;;;;29.40;64.38;96000.97;5076081;28;20216;-67
2022/07/12 06:23:26;;;;;;;1999.90;999.90;;;;;;;29.12;63.91;96003.00;5059053;28;20260;-67
2022/07/12 06:25:52;;;;;;;1999.90;999.90;;;;;;;28.36;67.68;95993.06;5076323;28;20208;-66
2022/07/12 06:28:17;;;;;;;1999.90;999.90;;;;;;;28.33;68.39;95995.59;5058634;28;20184;-59
2022/07/12 06:30:43;;;;;;;1999.90;999.90;;;;;;;29.02;66.04;95987.66;5058802;28;20189;-60
2022/07/12 06:33:08;;;;;;;1999.90;999.90;;;;;;;29.25;65.65;96001.25;5058438;28;20210;-60
2022/07/12 06:35:34;;;;;;;1999.90;999.90;;;;;;;30.65;61.38;96006.84;5058396;28;20212;-63
2022/07/12 06:37:59;;;;;;;1999.90;999.90;;;;;;;30.31;59.12;96000.59;5058539;28;20207;-61
2022/07/12 06:40:25;;;;;;;1999.90;999.90;;;;;;;30.83;58.12;95995.75;5058831;28;20189;-59
2022/07/12 06:42:50;;;;;;;1999.90;999.90;;;;;;;30.71;56.45;95993.50;5058592;28;20246;-59
2022/07/12 06:45:16;;;;;;;1999.90;999.90;;;;;;;30.75;56.69;95999.66;5058956;28;20196;-61
2022/07/12 06:47:41;;;;;;;1999.90;999.90;;;;;;;31.30;55.58;96010.59;5058804;28;20177;-65
2022/07/12 06:50:07;;;;;;;1999.90;999.90;;;;;;;31.31;52.69;96002.91;5058679;28;20185;-65
2022/07/12 06:52:33;;;;;;;1999.90;999.90;;;;;;;31.26;52.49;96001.66;5058141;28;20272;-65
2022/07/12 06:54:59;;;;;;;1999.90;999.90;;;;;;;31.02;54.88;96001.53;5057995;28;20300;-64
2022/07/12 06:57:26;;;;;;;1999.90;999.90;;;;;;;30.78;54.46;95998.63;5058158;28;20220;-64
2022/07/12 06:59:52;;;;;;;1999.90;999.90;;;;;;;31.36;52.57;95991.56;5058146;28;20201;-64
2022/07/12 07:02:17;;;;;;;1999.90;999.90;;;;;;;31.87;51.18;95995.50;5058106;28;20185;-65
2022/07/12 07:04:42;;;;;;;1999.90;999.90;;;;;;;31.82;50.87;95994.25;5058191;28;20298;-57
2022/07/12 07:07:08;;;;;;;1999.90;999.90;;;;;;;32.94;47.27;95989.59;5058100;28;20272;-64
2022/07/12 07:09:34;;;;;;;1999.90;999.90;;;;;;;33.03;45.37;95994.88;5057892;28;20185;-67
2022/07/12 07:11:59;;;;;;;1999.90;999.90;;;;;;;33.13;44.27;95991.13;5058021;28;20238;-64
2022/07/12 07:14:25;;;;;;;1999.90;999.90;;;;;;;33.06;44.57;95997.41;5057822;28;20197;-64
2022/07/12 07:16:53;;;;;;;1999.90;999.90;;;;;;;33.67;42.46;95993.59;5057986;28;20245;-64
2022/07/12 07:19:18;;;;;;;1999.90;999.90;;;;;;;33.44;42.69;95995.28;5074558;28;20212;-65
2022/07/12 07:21:43;;;;;;;1999.90;999.90;;;;;;;33.83;42.40;96001.06;5058057;28;20188;-64
2022/07/12 07:24:09;;;;;;;1999.90;999.90;;;;;;;34.58;40.42;95990.09;5058022;28;20185;-62
2022/07/12 07:26:35;;;;;;;1999.90;999.90;;;;;;;34.19;40.58;96005.06;5057495;28;20185;-64
2022/07/12 07:31:44;;;;;;;1999.90;999.90;;;;;;;34.23;39.44;96004.75;5075745;28;20199;-61
2022/07/12 07:34:10;;;;;;;1999.90;999.90;;;;;;;34.45;40.22;96002.25;5057949;28;20185;-60
2022/07/12 07:36:35;;;;;;;1999.90;999.90;;;;;;;35.44;37.28;96002.94;5057632;28;20188;-59
2022/07/12 07:39:00;;;;;;;1999.90;999.90;;;;;;;36.48;34.94;96007.22;5074949;28;20212;-60
2022/07/12 07:41:26;;;;;;;1999.90;999.90;;;;;;;37.25;32.89;96010.66;5057919;28;20180;-56
2022/07/12 07:43:51;;;;;;;1999.90;999.90;;;;;;;38.32;31.45;96013.84;5074406;28;20180;-59
2022/07/12 07:46:17;;;;;;;1999.90;999.90;;;;;;;36.29;33.73;96012.41;5057961;28;20280;-60
2022/07/12 07:48:42;;;;;;;1999.90;999.90;;;;;;;35.40;34.10;96013.13;5057446;28;20185;-59
2022/07/12 07:51:08;;;;;;;1999.90;999.90;;;;;;;34.19;37.29;96012.81;5057239;28;20173;-59
2022/07/12 07:53:33;;;;;;;1999.90;999.90;;;;;;;34.39;38.07;96012.19;5073962;28;20215;-59
2022/07/12 07:55:59;;;;;;;1999.90;999.90;;;;;;;35.29;36.13;96007.69;5057291;28;20208;-60
2022/07/12 07:58:25;;;;;;;1999.90;999.90;;;;;;;35.68;35.40;96016.03;5057385;28;20185;-60
2022/07/12 08:00:50;;;;;;;1999.90;999.90;;;;;;;35.47;36.08;96012.44;5056915;28;20208;-59
2022/07/12 08:03:16;;;;;;;1999.90;999.90;;;;;;;36.36;33.88;96006.00;5074781;28;20265;-64
2022/07/12 08:05:42;;;;;;;1999.90;999.90;;;;;;;36.13;33.86;96010.75;5057660;28;20207;-62
2022/07/12 08:08:07;;;;;;;1999.90;999.90;;;;;;;36.45;32.70;96005.50;5057670;28;20343;-63
2022/07/12 08:10:33;;;;;;;1999.90;999.90;;;;;;;36.49;33.12;96009.50;5057520;28;20185;-63
2022/07/12 08:12:59;;;;;;;1999.90;999.90;;;;;;;36.65;32.80;96016.06;5057176;28;20189;-63
2022/07/12 08:15:25;;;;;;;1999.90;999.90;;;;;;;36.03;33.17;96012.59;5057048;28;20293;-63
2022/07/12 08:17:53;;;;;;;1999.90;999.90;;;;;;;35.04;34.24;96014.97;5074713;28;20265;-56
2022/07/12 08:20:19;;;;;;;1999.90;999.90;;;;;;;34.55;35.70;96013.94;5056549;28;20205;-59
2022/07/12 08:22:45;;;;;;;1999.90;999.90;;;;;;;34.55;35.30;96008.25;5074559;28;20187;-59
2022/07/12 08:25:11;;;;;;;1999.90;999.90;;;;;;;34.57;35.03;96014.13;5056764;28;20292;-58
2022/07/12 08:27:36;;;;;;;1999.90;999.90;;;;;;;34.91;34.25;96020.66;5056911;28;20208;-59
2022/07/12 08:30:02;;;;;;;1999.90;999.90;;;;;;;34.06;35.73;96016.41;5056864;28;20284;-59
2022/07/12 08:32:28;;;;;;;1999.90;999.90;;;;;;;33.34;36.87;96017.59;5074009;28;20180;-58
2022/07/12 08:34:53;;;;;;;1999.90;999.90;;;;;;;32.90;37.63;96018.22;5056617;28;20225;-58
2022/07/12 08:37:18;;;;;;;1999.90;999.90;;;;;;;33.20;38.36;96015.22;5057065;28;20178;-59
2022/07/12 08:39:44;;;;;;;1999.90;999.90;;;;;;;34.53;35.56;96016.56;5056472;28;20216;-59
2022/07/12 08:42:16;;;;;;;1999.90;999.90;;;;;;;33.64;36.50;96025.88;5056944;28;20185;-59
2022/07/12 08:44:42;;;;;;;1999.90;999.90;;;;;;;31.91;39.96;96030.66;5056952;28;20217;-59
2022/07/12 08:47:08;;;;;;;1999.90;999.90;;;;;;;30.76;43.34;96029.41;5056748;28;20180;-59
2022/07/12 08:49:33;;;;;;;1999.90;999.90;;;;;;;30.30;46.12;96032.13;5073239;28;20196;-58
2022/07/12 08:51:59;;;;;;;1999.90;999.90;;;;;;;30.03;46.54;96030.13;5057004;28;20181;-59
2022/07/12 08:54:24;;;;;;;1999.90;999.90;;;;;;;30.25;48.23;96030.09;5056925;28;20203;-58
2022/07/12 08:56:50;;;;;;;1999.90;999.90;;;;;;;31.35;44.20;96029.56;5074154;28;20227;-59
2022/07/12 08:59:18;;;;;;;1999.90;999.90;;;;;;;32.28;40.43;96030.78;5056431;28;20181;-61
2022/07/12 09:01:49;;;;;;;1999.90;999.90;;;;;;;34.08;37.58;96018.69;5072855;28;20223;-59
2022/07/12 09:04:18;;;;;;;1999.90;999.90;;;;;;;34.12;37.92;96021.97;5056889;28;20185;-62
2022/07/12 09:06:43;;;;;;;1999.90;999.90;;;;;;;33.47;37.95;96026.16;5056869;28;20177;-60
2022/07/12 09:09:09;;;;;;;1999.90;999.90;;;;;;;34.00;37.22;96029.16;5056341;28;20234;-60
2022/07/12 09:11:39;;;;;;;1999.90;999.90;;;;;;;32.10;37.76;96039.97;5056135;28;20188;-60
2022/07/12 09:14:05;;;;;;;1999.90;999.90;;;;;;;31.54;38.33;96046.63;5056441;28;20246;-60
2022/07/12 09:16:30;;;;;;;1999.90;999.90;;;;;;;32.79;36.19;96040.22;5056317;28;20185;-59
2022/07/12 09:19:17;;;;;;;1999.90;999.90;;;;;;;32.83;35.85;96047.16;5056077;28;20183;-58
2022/07/12 09:21:47;;;;;;;1999.90;999.90;;;;;;;34.26;33.38;96027.09;5056345;28;20176;-59
2022/07/12 09:24:13;;;;;;;1999.90;999.90;;;;;;;32.69;35.20;96041.88;5072533;28;20184;-59
2022/07/12 09:26:38;;;;;;;1999.90;999.90;;;;;;;31.96;37.58;96041.13;5055984;28;20185;-59
2022/07/12 09:29:11;;;;;;;1999.90;999.90;;;;;;;31.31;39.38;96043.19;5055997;28;20236;-59
2022/07/12 09:31:40;;;;;;;1999.90;999.90;;;;;;;30.38;40.58;96038.78;5055754;28;20279;-59
2022/07/12 09:36:57;;;;;;;1999.90;999.90;;;;;;;30.26;42.38;96038.03;5073935;28;20192;-59
2022/07/12 09:39:24;;;;;;;1999.90;999.90;;;;;;;29.44;44.36;96035.28;5072209;28;20181;-60
2022/07/12 09:41:52;;;;;;;1999.90;999.90;;;;;;;29.36;45.66;96045.50;5055944;28;20197;-60
2022/07/12 09:44:19;;;;;;;1999.90;999.90;;;;;;;29.17;46.97;96047.28;5055703;28;20280;-59
2022/07/12 09:46:44;;;;;;;1999.90;999.90;;;;;;;28.63;50.42;96051.47;5055698;28;20188;-59
2022/07/12 09:49:10;;;;;;;1999.90;999.90;;;;;;;28.28;52.08;96055.38;5056328;28;20187;-59
2022/07/12 09:51:38;;;;;;;1999.90;999.90;;;;;;;28.47;51.04;96049.34;5058096;28;20192;-54
2022/07/12 09:54:06;;;;;;;1999.90;999.90;;;;;;;28.18;52.24;96054.03;5059239;28;20189;-55
2022/07/12 09:56:35;;;;;;;1999.90;999.90;;;;;;;28.45;52.44;96040.66;5059371;28;20177;-54
2022/07/12 09:59:01;;;;;;;1999.90;999.90;;;;;;;28.57;53.72;96051.44;5059386;28;20209;-54
2022/07/12 10:01:30;;;;;;;1999.90;999.90;;;;;;;30.47;48.53;96041.28;5076187;28;20200;-56
2022/07/12 10:03:59;;;;;;;1999.90;999.90;;;;;;;30.87;45.20;96041.41;5059025;28;20188;-51
2022/07/12 10:06:29;;;;;;;1999.90;999.90;;;;;;;30.53;45.64;96047.69;5058829;28;20201;-55
2022/07/12 10:08:56;;;;;;;1999.90;999.90;;;;;;;29.56;48.79;96048.84;5058870;28;20197;-60
2022/07/12 10:11:23;;;;;;;1999.90;999.90;;;;;;;30.02;48.54;96051.13;5058960;28;20188;-60
2022/07/12 10:13:49;;;;;;;1999.90;999.90;;;;;;;30.11;47.09;96053.66;5059170;28;20177;-59
2022/07/12 10:16:16;;;;;;;1999.90;999.90;;;;;;;29.42;49.78;96049.84;5058909;28;20234;-59
2022/07/12 10:18:41;;;;;;;1999.90;999.90;;;;;;;29.19;50.43;96047.53;5058668;28;20182;-58
2022/07/12 10:21:21;;;;;;;1999.90;999.90;;;;;;;28.56;52.12;96052.72;5059352;28;20216;-59
2022/07/12 10:23:47;;;;;;;1999.90;999.90;;;;;;;28.90;52.29;96045.91;5058711;28;20263;-59
2022/07/12 10:26:16;;;;;;;1999.90;999.90;;;;;;;28.44;53.67;96067.22;5058752;28;20221;-54
2022/07/12 10:29:04;;;;;;;1999.90;999.90;;;;;;;28.32;55.62;96071.25;5058614;28;20211;-58
2022/07/12 10:31:38;;;;;;;1999.90;999.90;;;;;;;28.68;56.27;96059.91;5058964;28;20217;-59
2022/07/12 10:34:20;;;;;;;1999.90;999.90;;;;;;;28.45;57.14;96057.50;5076134;28;20190;-58
2022/07/12 10:36:55;;;;;;;1999.90;999.90;;;;;;;29.28;53.25;96053.69;5058487;28;20286;-58
2022/07/12 10:39:22;;;;;;;1999.90;999.90;;;;;;;30.12;50.42;96058.03;5058648;28;20272;-60
2022/07/12 10:42:02;;;;;;;1999.90;999.90;;;;;;;29.59;51.20;96047.84;5058602;28;20182;-60
2022/07/12 10:44:44;;;;;;;1999.90;999.90;;;;;;;30.54;47.96;96052.81;5058488;28;20185;-53
2022/07/12 10:47:12;;;;;;;1999.90;999.90;;;;;;;30.53;46.55;96044.88;5058473;28;20181;-62
2022/07/12 10:49:45;;;;;;;1999.90;999.90;;;;;;;30.54;45.89;96055.63;5058377;28;20184;-60
2022/07/12 10:52:11;;;;;;;1999.90;999.90;;;;;;;30.73;45.19;96058.66;5058761;28;20188;-62
2022/07/12 10:54:40;;;;;;;1999.90;999.90;;;;;;;29.18;49.56;96054.44;5076063;28;20236;-60